Time;durP1;ratioP1;P1;durP2;ratioP2;P2;SDS_P1;SDS_P2;PMS_P1;PMS_P2;Temp;Humidity;BMP_temperature;BMP_pressure;BME280_temperature;BME280_humidity;BME280_pressure;Samples;Min_cycle;Max_cycle;Signal;HPM_P1;HPM_P2
2022/06/16 00:00:17;;;;;;;11.23;8.27;;;10.40;99.90;;;;;;5010345;28;20045;-44
2022/06/16 00:02:45;;;;;;;9.82;7.65;;;10.40;99.90;;;;;;5009919;28;20045;-43
2022/06/16 00:05:12;;;;;;;10.07;6.85;;;10.30;99.90;;;;;;5009841;28;20076;-44
2022/06/16 00:07:40;;;;;;;11.30;7.03;;;10.50;99.90;;;;;;5009729;28;20041;-43
2022/06/16 00:10:09;;;;;;;14.05;8.05;;;10.90;99.90;;;;;;5009564;28;20125;-43
2022/06/16 00:12:36;;;;;;;10.70;7.55;;;10.30;99.90;;;;;;5009860;28;20128;-43
2022/06/16 00:15:03;;;;;;;10.50;7.97;;;10.30;99.90;;;;;;5010238;28;20041;-43
2022/06/16 00:17:29;;;;;;;9.68;7.15;;;10.30;99.90;;;;;;5010089;28;20116;-43
2022/06/16 00:19:55;;;;;;;9.80;6.93;;;10.30;99.90;;;;;;5010059;28;20174;-43
2022/06/16 00:22:21;;;;;;;10.63;6.50;;;10.40;99.90;;;;;;5009835;28;20254;-44
2022/06/16 00:24:46;;;;;;;13.02;6.75;;;10.20;99.90;;;;;;5010310;28;20172;-43
2022/06/16 00:27:12;;;;;;;13.90;6.97;;;11.20;99.90;;;;;;5010095;28;20053;-43
2022/06/16 00:29:37;;;;;;;10.23;7.22;;;10.20;99.90;;;;;;5009898;28;20073;-43
2022/06/16 00:32:04;;;;;;;9.30;6.45;;;10.40;99.90;;;;;;5009602;28;20046;-44
2022/06/16 00:34:29;;;;;;;11.60;7.32;;;10.40;99.90;;;;;;5009574;28;20103;-43
2022/06/16 00:36:55;;;;;;;12.38;5.57;;;10.30;99.90;;;;;;5009294;28;20045;-43
2022/06/16 00:39:21;;;;;;;10.90;7.18;;;10.30;99.90;;;;;;5009982;28;20397;-44
2022/06/16 00:41:47;;;;;;;8.93;6.50;;;10.30;99.90;;;;;;5009745;28;20061;-43
2022/06/16 00:44:31;;;;;;;11.57;7.35;;;10.20;99.90;;;;;;5008405;28;20049;-43
2022/06/16 00:46:57;;;;;;;9.57;6.25;;;10.10;99.90;;;;;;5009460;28;20124;-44
2022/06/16 00:49:24;;;;;;;11.88;6.80;;;10.10;99.90;;;;;;5009451;28;20038;-43
2022/06/16 00:51:55;;;;;;;13.60;7.55;;;10.30;99.90;;;;;;5009541;28;20042;-44
2022/06/16 00:54:31;;;;;;;11.00;8.07;;;9.90;99.90;;;;;;5009327;28;20034;-43
2022/06/16 00:57:05;;;;;;;11.80;7.70;;;9.90;99.90;;;;;;5009764;28;20464;-45
2022/06/16 00:59:31;;;;;;;13.88;7.72;;;9.90;99.90;;;;;;5008991;28;20049;-43
2022/06/16 01:01:56;;;;;;;11.32;7.45;;;9.90;99.90;;;;;;5008965;28;20049;-43
2022/06/16 01:07:14;;;;;;;12.85;7.18;;;9.80;99.90;;;;;;5008634;28;20049;-43
2022/06/16 01:09:42;;;;;;;11.65;6.57;;;10.70;99.90;;;;;;5007566;28;20089;-43
2022/06/16 01:15:29;;;;;;;19.48;8.27;;;9.60;99.90;;;;;;5009312;28;20052;-45
2022/06/16 01:18:03;;;;;;;11.93;8.13;;;9.50;99.90;;;;;;5007640;28;20049;-43
2022/06/16 01:20:29;;;;;;;11.25;7.28;;;9.50;99.90;;;;;;5008418;28;20062;-44
2022/06/16 01:23:00;;;;;;;8.77;6.63;;;10.00;99.90;;;;;;5008803;28;20060;-44
2022/06/16 01:25:57;;;;;;;8.75;5.68;;;9.40;99.90;;;;;;5008503;28;20048;-43
2022/06/16 01:28:48;;;;;;;8.27;6.20;;;9.40;99.90;;;;;;5007853;28;20046;-43
2022/06/16 01:31:25;;;;;;;8.05;5.40;;;9.40;99.90;;;;;;5008856;28;20100;-43
2022/06/16 01:34:06;;;;;;;9.20;5.68;;;10.40;99.90;;;;;;5007079;28;20104;-44
2022/06/16 01:36:47;;;;;;;11.48;6.72;;;9.30;99.90;;;;;;5008010;28;20481;-43
2022/06/16 01:39:18;;;;;;;11.38;6.78;;;9.20;99.90;;;;;;5009217;28;20120;-43
2022/06/16 01:42:03;;;;;;;7.57;5.97;;;9.20;99.90;;;;;;5009086;28;20046;-44
2022/06/16 01:44:48;;;;;;;7.55;5.90;;;9.20;99.90;;;;;;5008748;28;20553;-44
2022/06/16 01:47:18;;;;;;;12.27;6.53;;;9.20;99.90;;;;;;5008991;28;20129;-43
2022/06/16 01:49:54;;;;;;;9.05;5.95;;;9.70;99.90;;;;;;5008527;28;20111;-43
2022/06/16 01:52:25;;;;;;;9.52;6.63;;;9.20;99.90;;;;;;5008670;28;20050;-45
2022/06/16 01:55:03;;;;;;;8.45;6.10;;;10.40;99.90;;;;;;5008486;28;20045;-45
2022/06/16 01:57:57;;;;;;;8.02;5.82;;;9.20;99.90;;;;;;5008766;28;20112;-43
2022/06/16 02:00:25;;;;;;;9.35;5.22;;;9.30;99.90;;;;;;5007922;28;20516;-43
2022/06/16 02:03:38;;;;;;;8.80;5.68;;;9.30;99.90;;;;;;5008101;28;20464;-43
2022/06/16 02:06:35;;;;;;;8.18;5.40;;;9.30;99.90;;;;;;4989071;28;20069;-43
2022/06/16 02:09:15;;;;;;;8.25;5.70;;;9.30;99.90;;;;;;4998604;28;20464;-43
2022/06/16 02:11:42;;;;;;;12.93;6.93;;;9.30;99.90;;;;;;5007437;28;20061;-43
2022/06/16 02:14:24;;;;;;;12.18;6.65;;;9.30;99.90;;;;;;5008171;28;20037;-45
2022/06/16 02:16:51;;;;;;;10.65;6.60;;;9.30;99.90;;;;;;5008087;28;20042;-44
2022/06/16 02:19:22;;;;;;;9.23;6.47;;;9.30;99.90;;;;;;5007964;28;20069;-43
2022/06/16 02:21:51;;;;;;;13.13;7.13;;;10.20;99.90;;;;;;5008025;28;20112;-43
2022/06/16 02:24:20;;;;;;;11.95;6.65;;;9.00;99.90;;;;;;5008009;28;20406;-43
2022/06/16 02:26:46;;;;;;;9.65;6.18;;;9.00;99.90;;;;;;5007950;28;20108;-44
2022/06/16 02:29:37;;;;;;;7.80;5.75;;;9.00;99.90;;;;;;5007738;28;20041;-43
2022/06/16 02:32:27;;;;;;;10.70;6.32;;;9.20;99.90;;;;;;5008048;28;20050;-43
2022/06/16 02:35:24;;;;;;;8.20;6.55;;;9.20;99.90;;;;;;5010208;28;20049;-43
2022/06/16 02:38:19;;;;;;;8.80;6.93;;;9.20;99.90;;;;;;5011233;28;20056;-43
2022/06/16 02:41:24;;;;;;;13.57;7.18;;;9.30;99.90;;;;;;5011899;28;20096;-43
2022/06/16 02:44:07;;;;;;;7.47;5.75;;;9.30;99.90;;;;;;5011853;28;20065;-43
2022/06/16 02:46:39;;;;;;;10.88;7.32;;;9.30;99.90;;;;;;5012348;28;20042;-45
2022/06/16 02:49:46;;;;;;;10.63;7.05;;;9.20;99.90;;;;;;5010757;28;20053;-44
2022/06/16 02:52:28;;;;;;;11.50;7.97;;;9.30;99.90;;;;;;5011574;28;20404;-43
2022/06/16 02:55:01;;;;;;;10.32;6.75;;;9.30;99.90;;;;;;5011359;28;20050;-43
2022/06/16 02:57:41;;;;;;;8.57;6.70;;;9.30;99.90;;;;;;5012132;28;20313;-43
2022/06/16 03:00:20;;;;;;;11.43;7.63;;;9.30;99.90;;;;;;5011783;28;20475;-43
2022/06/16 03:02:45;;;;;;;9.13;7.65;;;9.30;99.90;;;;;;5011574;28;20065;-43
2022/06/16 03:05:13;;;;;;;11.93;7.60;;;9.10;99.90;;;;;;5011778;28;20464;-43
2022/06/16 03:07:41;;;;;;;9.82;7.38;;;9.80;99.90;;;;;;5011559;28;20053;-45
2022/06/16 03:10:07;;;;;;;13.20;8.05;;;9.20;99.90;;;;;;5009270;28;20053;-43
2022/06/16 03:12:33;;;;;;;14.95;8.57;;;9.20;99.90;;;;;;5011518;28;20084;-44
2022/06/16 03:14:59;;;;;;;14.82;8.35;;;9.20;99.90;;;;;;5011471;28;20108;-43
2022/06/16 03:17:25;;;;;;;17.95;9.38;;;9.30;99.90;;;;;;5011570;28;20034;-45
2022/06/16 03:19:50;;;;;;;16.30;9.68;;;10.60;99.90;;;;;;5009361;28;20061;-43
2022/06/16 03:22:18;;;;;;;16.17;9.75;;;10.10;99.90;;;;;;5011564;28;20049;-43
2022/06/16 03:24:44;;;;;;;14.10;9.63;;;9.30;99.90;;;;;;5011267;28;20104;-43
2022/06/16 03:27:11;;;;;;;21.02;10.35;;;9.50;99.90;;;;;;5011279;28;20049;-43
2022/06/16 03:29:36;;;;;;;12.65;9.52;;;9.50;99.90;;;;;;5011059;28;20042;-43
2022/06/16 03:32:02;;;;;;;13.38;9.52;;;9.60;99.90;;;;;;5010898;28;20045;-43
2022/06/16 03:34:28;;;;;;;10.68;7.95;;;9.60;99.90;;;;;;5011218;28;20053;-43
2022/06/16 03:36:54;;;;;;;16.73;8.70;;;10.10;99.90;;;;;;5010870;28;20050;-42
2022/06/16 03:39:20;;;;;;;16.73;9.25;;;9.60;99.90;;;;;;5010274;28;20038;-43
2022/06/16 03:41:45;;;;;;;13.98;9.38;;;10.40;99.90;;;;;;5010783;28;20042;-43
2022/06/16 03:44:11;;;;;;;18.90;8.75;;;10.20;99.90;;;;;;5010602;28;20404;-44
2022/06/16 03:46:36;;;;;;;14.77;8.75;;;9.50;99.90;;;;;;5009672;28;20473;-44
2022/06/16 03:49:03;;;;;;;12.32;8.10;;;9.90;99.90;;;;;;5010198;28;20497;-44
2022/06/16 03:51:29;;;;;;;13.07;8.57;;;9.70;99.90;;;;;;5010710;28;20121;-43
2022/06/16 03:53:55;;;;;;;11.18;8.13;;;9.70;99.90;;;;;;5009920;28;20148;-43
2022/06/16 03:56:20;;;;;;;12.00;9.40;;;9.70;99.90;;;;;;5010844;28;20038;-43
2022/06/16 03:58:51;;;;;;;13.20;9.30;;;9.80;99.90;;;;;;5010282;28;20095;-45
2022/06/16 04:01:17;;;;;;;15.23;9.75;;;10.80;99.90;;;;;;5010706;28;20095;-43
2022/06/16 04:04:00;;;;;;;11.90;8.43;;;10.00;99.90;;;;;;5010497;28;20063;-43
2022/06/16 04:06:34;;;;;;;14.88;8.23;;;10.30;99.90;;;;;;5010470;28;20137;-43
2022/06/16 04:09:02;;;;;;;14.38;9.30;;;10.20;99.90;;;;;;5009979;28;20144;-43
2022/06/16 04:11:28;;;;;;;17.95;8.05;;;10.20;99.90;;;;;;5009558;28;20046;-43
2022/06/16 04:14:00;;;;;;;17.20;9.40;;;10.30;99.90;;;;;;5010213;28;20056;-43
2022/06/16 04:16:26;;;;;;;14.18;9.80;;;10.30;99.90;;;;;;5010305;28;20077;-44
2022/06/16 04:18:52;;;;;;;12.93;7.75;;;10.70;99.90;;;;;;5010021;28;20129;-43
2022/06/16 04:21:18;;;;;;;21.17;9.18;;;11.40;99.90;;;;;;5010450;28;20507;-43
2022/06/16 04:23:44;;;;;;;14.55;8.88;;;10.70;99.90;;;;;;5010356;28;20442;-43
2022/06/16 04:26:10;;;;;;;13.93;8.02;;;10.70;99.90;;;;;;5010133;28;20108;-43
2022/06/16 04:28:35;;;;;;;17.48;8.85;;;10.80;99.90;;;;;;5008579;28;20489;-44
2022/06/16 04:31:01;;;;;;;15.77;8.27;;;10.60;99.90;;;;;;5008625;28;20104;-44
2022/06/16 04:33:27;;;;;;;11.68;7.20;;;10.70;99.90;;;;;;5010280;28;20051;-44
2022/06/16 04:35:54;;;;;;;10.20;6.82;;;11.90;99.90;;;;;;5009783;28;20046;-44
2022/06/16 04:38:20;;;;;;;16.20;8.05;;;10.70;99.90;;;;;;5010295;28;20448;-43
2022/06/16 04:40:46;;;;;;;13.25;8.05;;;10.70;99.90;;;;;;5009355;28;20092;-44
2022/06/16 04:43:14;;;;;;;15.48;8.95;;;11.60;99.90;;;;;;5009589;28;20049;-43
2022/06/16 04:45:41;;;;;;;13.35;8.80;;;11.00;99.90;;;;;;5009667;28;20054;-44
2022/06/16 04:48:07;;;;;;;12.75;7.55;;;11.20;99.90;;;;;;5009721;28;20064;-43
2022/06/16 04:50:34;;;;;;;14.77;7.93;;;11.50;99.90;;;;;;5009619;28;20042;-44
2022/06/16 04:53:00;;;;;;;14.35;7.60;;;12.50;99.90;;;;;;5009200;28;20053;-43
2022/06/16 04:55:25;;;;;;;10.75;7.68;;;12.10;99.90;;;;;;5009457;28;20042;-44
2022/06/16 04:57:54;;;;;;;14.95;7.72;;;12.50;99.90;;;;;;5008996;28;20500;-43
2022/06/16 05:00:21;;;;;;;9.02;6.80;;;12.80;99.90;;;;;;5024122;28;20045;-44
2022/06/16 05:02:47;;;;;;;10.82;6.57;;;13.10;99.90;;;;;;5009195;28;20056;-43
2022/06/16 05:05:13;;;;;;;10.82;6.53;;;13.40;99.90;;;;;;5008887;28;20041;-44
2022/06/16 05:07:39;;;;;;;13.13;8.10;;;14.30;99.90;;;;;;5009528;28;20038;-44
2022/06/16 05:10:06;;;;;;;15.88;8.52;;;14.20;99.90;;;;;;5008720;28;20045;-44
2022/06/16 05:12:31;;;;;;;12.32;6.43;;;14.50;99.90;;;;;;5009733;28;20054;-43
2022/06/16 05:14:57;;;;;;;9.90;5.72;;;14.90;99.90;;;;;;5009462;28;20045;-44
2022/06/16 05:17:23;;;;;;;10.52;5.90;;;15.20;99.90;;;;;;5009434;28;20044;-44
2022/06/16 05:19:48;;;;;;;8.25;5.30;;;15.60;99.90;;;;;;5008804;28;20120;-44
2022/06/16 05:22:14;;;;;;;8.20;4.90;;;16.00;99.90;;;;;;5008954;28;20137;-43
2022/06/16 05:24:40;;;;;;;6.65;3.70;;;16.40;99.90;;;;;;5009071;28;20103;-43
2022/06/16 05:27:06;;;;;;;7.28;4.78;;;16.60;99.90;;;;;;5008940;28;20369;-44
2022/06/16 05:29:32;;;;;;;5.63;4.30;;;16.70;99.90;;;;;;5008687;28;20045;-44
2022/06/16 05:31:58;;;;;;;8.07;5.10;;;16.70;99.90;;;;;;5008583;28;20037;-44
2022/06/16 05:34:24;;;;;;;6.85;4.30;;;16.70;99.90;;;;;;5007370;28;20413;-43
2022/06/16 05:36:50;;;;;;;7.18;3.75;;;16.80;99.90;;;;;;5009083;28;20129;-44
2022/06/16 05:39:16;;;;;;;9.65;5.40;;;16.90;99.90;;;;;;5008615;28;20046;-43
2022/06/16 05:41:42;;;;;;;10.65;5.10;;;17.00;99.90;;;;;;5008638;28;20050;-44
2022/06/16 05:44:09;;;;;;;8.52;4.25;;;17.50;99.90;;;;;;5008358;28;20497;-44
2022/06/16 05:46:35;;;;;;;7.20;3.80;;;17.40;99.90;;;;;;5008767;28;20054;-44
2022/06/16 05:49:01;;;;;;;7.43;3.00;;;17.50;99.90;;;;;;5008726;28;20099;-45
2022/06/16 05:51:26;;;;;;;6.93;3.03;;;17.70;99.90;;;;;;5008741;28;20050;-45
2022/06/16 05:53:52;;;;;;;7.78;3.92;;;17.80;99.90;;;;;;5008526;28;20386;-44
2022/06/16 05:56:18;;;;;;;6.55;3.47;;;17.90;99.90;;;;;;5008455;28;20147;-45
2022/06/16 05:58:44;;;;;;;11.20;4.45;;;17.90;99.90;;;;;;5023567;28;20330;-45
2022/06/16 06:01:11;;;;;;;7.90;4.15;;;18.10;99.90;;;;;;5008371;28;20164;-44
2022/06/16 06:03:38;;;;;;;13.02;4.00;;;18.90;98.70;;;;;;5008701;28;20049;-44
2022/06/16 06:06:04;;;;;;;9.40;3.67;;;19.10;98.10;;;;;;5006742;28;20053;-44
2022/06/16 06:16:55;;;;;;;7.13;1.80;;;20.00;94.90;;;;;;5008251;28;20560;-48
2022/06/16 06:19:23;;;;;;;4.75;1.35;;;20.10;94.70;;;;;;5008415;28;20089;-45
2022/06/16 06:21:58;;;;;;;1.88;0.50;;;21.70;92.70;;;;;;5009101;28;20430;-48
2022/06/16 06:24:24;;;;;;;2.28;0.43;;;21.70;90.70;;;;;;5008854;28;20060;-44
2022/06/16 06:26:50;;;;;;;2.88;0.47;;;22.60;87.60;;;;;;5008782;28;20116;-44
2022/06/16 06:29:16;;;;;;;0.93;0.20;;;22.70;86.00;;;;;;5008262;28;20038;-44
2022/06/16 06:31:41;;;;;;;2.17;0.30;;;22.50;86.30;;;;;;5008376;28;20048;-44
2022/06/16 06:34:07;;;;;;;3.08;0.60;;;24.10;82.60;;;;;;5008071;28;20050;-45
2022/06/16 06:36:33;;;;;;;2.00;0.50;;;25.40;75.60;;;;;;5008346;28;20185;-44
2022/06/16 06:38:58;;;;;;;2.72;0.25;;;27.00;70.50;;;;;;5008192;28;20038;-44
2022/06/16 06:41:24;;;;;;;2.15;0.30;;;28.30;67.40;;;;;;5007302;28;20038;-45
2022/06/16 06:43:50;;;;;;;2.30;0.40;;;29.30;62.80;;;;;;5008321;28;20492;-45
2022/06/16 06:46:15;;;;;;;1.65;0.20;;;29.80;58.90;;;;;;5008279;28;20042;-44
2022/06/16 06:48:42;;;;;;;2.63;0.20;;;30.90;57.30;;;;;;5008476;28;20069;-44
2022/06/16 06:51:08;;;;;;;2.00;0.30;;;31.80;55.50;;;;;;5007879;28;20050;-45
2022/06/16 06:53:33;;;;;;;3.78;0.20;;;32.50;53.30;;;;;;5008117;28;20054;-46
2022/06/16 06:55:59;;;;;;;2.40;0.20;;;32.70;51.60;;;;;;5007638;28;20096;-47
2022/06/16 06:58:25;;;;;;;3.08;0.30;;;33.00;51.70;;;;;;5007739;28;20446;-46
2022/06/16 07:00:54;;;;;;;1.88;0.30;;;33.60;49.20;;;;;;5008041;28;20128;-46
2022/06/16 07:03:21;;;;;;;1.77;0.30;;;34.40;48.10;;;;;;5007812;28;20160;-46
2022/06/16 07:05:47;;;;;;;4.70;0.43;;;34.80;47.20;;;;;;5007909;28;20150;-45
2022/06/16 07:08:13;;;;;;;2.03;0.60;;;35.10;47.10;;;;;;5007785;28;20045;-46
2022/06/16 07:10:40;;;;;;;2.22;0.55;;;35.60;46.50;;;;;;5007136;28;20052;-45
2022/06/16 07:13:07;;;;;;;2.60;0.40;;;36.10;45.50;;;;;;5007181;28;20049;-46
2022/06/16 07:15:34;;;;;;;2.95;0.82;;;36.30;44.60;;;;;;5006899;28;20477;-46
2022/06/16 07:18:00;;;;;;;3.28;0.60;;;36.50;44.60;;;;;;5006998;28;20053;-45
2022/06/16 07:20:26;;;;;;;2.90;0.47;;;36.40;43.40;;;;;;5007971;28;20093;-46
2022/06/16 07:22:51;;;;;;;2.50;0.30;;;36.70;43.10;;;;;;5010681;28;20120;-46
2022/06/16 07:25:17;;;;;;;1.83;0.40;;;37.10;42.00;;;;;;5010546;28;20444;-48
2022/06/16 07:27:44;;;;;;;1.42;0.40;;;37.20;41.80;;;;;;5010757;28;20520;-45
2022/06/16 07:30:15;;;;;;;1.80;0.40;;;37.40;41.60;;;;;;5010200;28;20093;-45
2022/06/16 07:32:42;;;;;;;2.60;0.50;;;37.60;39.20;;;;;;5009578;28;20350;-45
2022/06/16 07:35:08;;;;;;;1.73;0.50;;;37.50;40.10;;;;;;5007734;28;20099;-47
2022/06/16 07:37:34;;;;;;;2.60;0.30;;;37.60;39.80;;;;;;5009755;28;20584;-45
2022/06/16 07:40:00;;;;;;;3.58;0.60;;;38.10;39.80;;;;;;5009759;28;20046;-45
2022/06/16 07:42:27;;;;;;;1.83;0.40;;;38.50;38.90;;;;;;5009914;28;20144;-46
2022/06/16 07:44:52;;;;;;;1.65;0.40;;;38.10;38.20;;;;;;5010359;28;20045;-46
2022/06/16 07:47:20;;;;;;;2.35;0.95;;;38.40;38.90;;;;;;5010373;28;20046;-47
2022/06/16 07:49:49;;;;;;;2.75;0.50;;;38.30;38.30;;;;;;5010694;28;20045;-46
2022/06/16 07:52:15;;;;;;;1.65;0.50;;;37.60;38.10;;;;;;5009594;28;20045;-46
2022/06/16 07:54:41;;;;;;;3.42;0.65;;;37.30;38.30;;;;;;5010371;28;20049;-47
2022/06/16 07:57:07;;;;;;;2.10;0.60;;;37.50;39.00;;;;;;5009836;28;20092;-47
2022/06/16 07:59:33;;;;;;;3.65;0.70;;;37.70;38.40;;;;;;5010310;28;20069;-46
2022/06/16 08:01:59;;;;;;;3.55;0.70;;;37.80;38.30;;;;;;5008512;28;20049;-46
2022/06/16 08:04:26;;;;;;;2.85;0.52;;;38.00;37.70;;;;;;5009979;28;20778;-46
2022/06/16 08:06:52;;;;;;;3.90;0.50;;;38.10;38.00;;;;;;5010175;28;20083;-47
2022/06/16 08:09:18;;;;;;;0.98;0.40;;;37.90;37.50;;;;;;5009355;28;20125;-47
2022/06/16 08:14:28;;;;;;;1.50;0.30;;;38.00;37.40;;;;;;4994562;28;20076;-44
2022/06/16 08:16:54;;;;;;;1.73;0.30;;;38.70;38.00;;;;;;5006793;28;20474;-45
2022/06/16 08:19:20;;;;;;;2.78;0.60;;;39.20;36.30;;;;;;5006697;28;20061;-46
2022/06/16 08:21:49;;;;;;;3.30;0.38;;;39.40;36.70;;;;;;5007082;28;20058;-46
2022/06/16 08:24:15;;;;;;;2.40;0.40;;;39.70;36.70;;;;;;5006595;28;20052;-48
2022/06/16 08:26:43;;;;;;;2.08;0.22;;;40.10;36.30;;;;;;5007218;28;20606;-46
2022/06/16 08:29:13;;;;;;;1.30;0.20;;;40.70;35.10;;;;;;5007148;28;20568;-47
2022/06/16 08:31:40;;;;;;;;;;;41.40;35.10;;;;;;5006093;28;20490;-46
2022/06/16 08:34:06;;;;;;;2.22;0.30;;;41.90;38.20;;;;;;5005853;28;20251;-46
2022/06/16 08:36:31;;;;;;;2.05;0.28;;;42.10;35.40;;;;;;5006138;28;20847;-46
2022/06/16 08:38:57;;;;;;;3.28;0.50;;;42.60;34.70;;;;;;5005366;28;20376;-47
2022/06/16 08:41:49;;;;;;;7.97;0.77;;;42.70;34.00;;;;;;5006270;28;20143;-46
2022/06/16 08:44:38;;;;;;;1.60;0.30;;;43.10;33.50;;;;;;5006888;28;20485;-46
2022/06/16 08:47:11;;;;;;;4.97;0.60;;;42.70;32.30;;;;;;5006738;28;20172;-48
2022/06/16 08:50:02;;;;;;;3.25;0.32;;;42.50;32.70;;;;;;5006545;28;20378;-48
2022/06/16 08:52:50;;;;;;;2.55;0.30;;;42.20;33.90;;;;;;5006307;28;20046;-47
2022/06/16 08:55:25;;;;;;;1.90;0.30;;;41.90;32.90;;;;;;5006855;28;20389;-46
2022/06/16 08:58:08;;;;;;;2.03;0.20;;;41.60;33.90;;;;;;5006666;28;20505;-47
2022/06/16 09:00:46;;;;;;;2.72;0.30;;;41.90;34.20;;;;;;5006529;28;20042;-46
2022/06/16 09:03:32;;;;;;;3.67;0.40;;;42.50;33.50;;;;;;5006370;28;20041;-48
2022/06/16 09:06:27;;;;;;;2.00;0.50;;;42.70;33.20;;;;;;5006863;28;20049;-46
2022/06/16 09:09:01;;;;;;;1.55;0.40;;;43.00;33.10;;;;;;4993724;28;20053;-47
2022/06/16 09:11:33;;;;;;;3.63;0.40;;;43.20;33.10;;;;;;5006378;28;20057;-46
2022/06/16 09:14:21;;;;;;;1.85;0.40;;;43.80;32.70;;;;;;5006440;28;20264;-46
2022/06/16 09:17:03;;;;;;;2.00;0.40;;;44.00;33.40;;;;;;5006034;28;20060;-46
2022/06/16 09:19:59;;;;;;;1.70;0.52;;;43.70;31.60;;;;;;5004519;28;20069;-46
2022/06/16 09:23:05;;;;;;;2.80;0.30;;;43.10;32.50;;;;;;5005300;28;20097;-47
2022/06/16 09:25:48;;;;;;;2.65;0.50;;;43.20;33.60;;;;;;5005434;28;20052;-47
2022/06/16 09:28:49;;;;;;;3.20;0.52;;;43.50;32.90;;;;;;5005967;28;20125;-46
2022/06/16 09:31:23;;;;;;;3.97;0.45;;;43.80;33.30;;;;;;5004826;28;20054;-48
2022/06/16 09:33:54;;;;;;;1.45;0.30;;;43.90;33.20;;;;;;5021004;28;20117;-46
2022/06/16 09:36:39;;;;;;;3.00;1.33;;;43.90;32.90;;;;;;5006028;28;20085;-46
2022/06/16 09:39:21;;;;;;;3.90;0.57;;;43.60;30.40;;;;;;5008190;28;20050;-46
2022/06/16 09:45:14;;;;;;;4.53;0.75;;;43.50;32.90;;;;;;5008836;28;20058;-47
2022/06/16 09:47:48;;;;;;;3.63;0.63;;;43.80;33.40;;;;;;5008895;28;20053;-46
2022/06/16 09:50:17;;;;;;;3.25;1.10;;;43.90;31.90;;;;;;5008916;28;20445;-47
2022/06/16 09:52:49;;;;;;;3.53;0.82;;;43.80;32.00;;;;;;5008529;28;20069;-46
2022/06/16 09:55:23;;;;;;;1.70;0.73;;;43.90;32.00;;;;;;5008373;28;20193;-48
2022/06/16 09:57:54;;;;;;;3.10;0.63;;;43.80;31.90;;;;;;5008586;28;20081;-49
2022/06/16 10:00:22;;;;;;;3.05;0.73;;;43.00;32.30;;;;;;5008316;28;20037;-46
2022/06/16 10:02:58;;;;;;;5.50;0.70;;;41.90;33.00;;;;;;5008987;28;20092;-47
2022/06/16 10:06:02;;;;;;;2.38;0.50;;;40.20;33.80;;;;;;5008541;28;20049;-45
2022/06/16 10:08:52;;;;;;;4.10;0.73;;;39.30;35.80;;;;;;5008370;28;20038;-46
2022/06/16 10:11:27;;;;;;;3.10;0.80;;;39.30;35.00;;;;;;5007343;28;20436;-45
2022/06/16 10:14:13;;;;;;;4.20;0.85;;;38.90;35.30;;;;;;5008460;28;20057;-45
2022/06/16 10:16:56;;;;;;;3.72;0.95;;;37.70;34.90;;;;;;5008766;28;20056;-45
2022/06/16 10:19:26;;;;;;;3.95;1.02;;;36.50;37.10;;;;;;5007824;28;20045;-46
2022/06/16 10:21:52;;;;;;;4.03;1.13;;;36.20;37.20;;;;;;5008163;28;20042;-45
2022/06/16 10:24:23;;;;;;;2.00;0.77;;;36.50;38.00;;;;;;5008064;28;20044;-45
2022/06/16 10:26:48;;;;;;;;;;;36.70;38.60;;;;;;5008679;28;20049;-45
2022/06/16 10:29:30;;;;;;;3.45;0.98;;;36.10;37.60;;;;;;5007995;28;20292;-45
2022/06/16 10:31:58;;;;;;;6.25;1.02;;;36.00;39.30;;;;;;5007944;28;20039;-46
2022/06/16 10:34:39;;;;;;;3.30;0.80;;;36.40;38.80;;;;;;5007734;28;20057;-45
2022/06/16 10:37:12;;;;;;;2.67;0.90;;;37.20;39.80;;;;;;5006281;28;20472;-45
2022/06/16 10:39:43;;;;;;;3.25;1.25;;;37.90;37.50;;;;;;5007291;28;20117;-46
2022/06/16 10:42:20;;;;;;;4.40;1.25;;;38.50;36.20;;;;;;5007733;28;20057;-46
2022/06/16 10:44:50;;;;;;;5.65;1.55;;;38.30;35.60;;;;;;5007621;28;20049;-45
2022/06/16 10:47:21;;;;;;;2.58;0.85;;;37.90;35.30;;;;;;5007912;28;20061;-45
2022/06/16 10:49:49;;;;;;;3.08;1.45;;;38.00;36.80;;;;;;5007413;28;20046;-45
2022/06/16 10:52:26;;;;;;;2.75;0.75;;;37.80;35.80;;;;;;5008000;28;20109;-44
2022/06/16 10:55:21;;;;;;;3.72;1.55;;;36.80;37.50;;;;;;5008754;28;20048;-44
2022/06/16 10:58:01;;;;;;;3.58;1.23;;;35.50;38.30;;;;;;5010943;28;20421;-44
2022/06/16 11:00:32;;;;;;;3.20;1.17;;;34.30;39.90;;;;;;5011767;28;20041;-46
2022/06/16 11:03:17;;;;;;;2.40;0.82;;;33.40;40.80;;;;;;5011760;28;20050;-44
2022/06/16 11:05:54;;;;;;;2.95;1.42;;;32.50;42.30;;;;;;5011191;28;20042;-43
2022/06/16 11:08:21;;;;;;;3.88;1.20;;;31.80;44.80;;;;;;5011568;28;20229;-45
2022/06/16 11:10:54;;;;;;;7.10;1.98;;;31.30;45.60;;;;;;5009420;28;20054;-44
2022/06/16 11:13:26;;;;;;;2.80;1.02;;;30.80;46.00;;;;;;5009714;28;20064;-44
2022/06/16 11:15:52;;;;;;;10.70;1.38;;;30.10;46.70;;;;;;5011434;28;20045;-44
2022/06/16 11:18:21;;;;;;;3.03;1.15;;;29.30;45.50;;;;;;5011443;28;20169;-45
2022/06/16 11:20:50;;;;;;;3.70;1.33;;;28.80;44.70;;;;;;5010826;28;20504;-44
2022/06/16 11:23:21;;;;;;;3.58;1.00;;;28.20;44.90;;;;;;5010704;28;20042;-45
2022/06/16 11:25:47;;;;;;;;;;;27.80;47.70;;;;;;5011302;28;20436;-44
2022/06/16 11:28:19;;;;;;;5.97;1.38;;;27.50;49.00;;;;;;5011150;28;19960;-44
2022/06/16 11:30:47;;;;;;;5.00;0.88;;;27.20;49.30;;;;;;5011232;28;20038;-44
2022/06/16 11:36:49;;;;;;;5.00;1.02;;;26.90;51.00;;;;;;5010900;28;20485;-44
2022/06/16 11:39:18;;;;;;;5.40;1.25;;;26.80;51.10;;;;;;5010444;28;20041;-44
2022/06/16 11:41:54;;;;;;;4.18;1.02;;;26.80;53.10;;;;;;5011125;28;20091;-44
2022/06/16 11:44:47;;;;;;;5.75;1.35;;;26.60;50.80;;;;;;5010448;28;20850;-45
2022/06/16 11:47:38;;;;;;;4.90;1.25;;;26.20;49.00;;;;;;5010934;28;20064;-44
2022/06/16 11:50:17;;;;;;;3.25;0.82;;;25.90;50.20;;;;;;5010403;28;20045;-44
2022/06/16 11:52:59;;;;;;;3.60;0.90;;;25.70;52.30;;;;;;5009042;28;20060;-44
2022/06/16 11:55:46;;;;;;;3.70;1.35;;;25.70;53.70;;;;;;5010523;28;20037;-45
2022/06/16 11:59:00;;;;;;;3.05;0.90;;;25.70;52.80;;;;;;5010691;28;20038;-45
2022/06/16 12:01:48;;;;;;;2.47;0.80;;;25.50;53.20;;;;;;5007952;28;20484;-44
2022/06/16 12:04:35;;;;;;;2.40;0.93;;;25.50;54.40;;;;;;5010664;28;20042;-44
2022/06/16 12:07:18;;;;;;;2.95;1.10;;;25.20;54.20;;;;;;5009289;28;20046;-43
2022/06/16 12:10:06;;;;;;;2.15;1.08;;;25.10;54.00;;;;;;5010164;28;20053;-44
2022/06/16 12:12:44;;;;;;;3.75;1.00;;;24.90;53.20;;;;;;5010213;28;20056;-44
2022/06/16 12:15:28;;;;;;;2.90;1.08;;;24.90;54.20;;;;;;5010665;28;20037;-44
2022/06/16 12:18:12;;;;;;;3.72;1.10;;;24.90;55.60;;;;;;5009130;28;20042;-44
2022/06/16 12:20:57;;;;;;;3.50;1.27;;;24.80;55.30;;;;;;5009772;28;20058;-44
2022/06/16 12:23:33;;;;;;;2.45;0.93;;;24.80;55.20;;;;;;5010468;28;20093;-44
2022/06/16 12:26:18;;;;;;;3.30;1.27;;;24.80;55.50;;;;;;5010368;28;20390;-44
2022/06/16 12:28:50;;;;;;;4.85;1.00;;;25.10;56.00;;;;;;5009887;28;20045;-45
2022/06/16 12:31:28;;;;;;;4.50;1.33;;;25.30;56.70;;;;;;4990971;28;20057;-45
2022/06/16 12:34:17;;;;;;;3.03;1.50;;;25.50;55.60;;;;;;5004846;28;20077;-44
2022/06/16 12:36:49;;;;;;;5.80;1.63;;;25.60;54.90;;;;;;5006665;28;20592;-46
2022/06/16 12:39:56;;;;;;;2.45;0.80;;;25.60;54.20;;;;;;5005591;28;20514;-45
2022/06/16 12:42:25;;;;;;;3.15;1.15;;;25.60;53.90;;;;;;5005542;28;20048;-46
2022/06/16 12:45:04;;;;;;;5.40;1.67;;;25.50;53.20;;;;;;5006600;28;20049;-49
2022/06/16 12:48:04;;;;;;;4.28;1.40;;;25.30;53.20;;;;;;5007004;28;20092;-44
2022/06/16 12:50:48;;;;;;;5.07;1.10;;;25.30;54.60;;;;;;5005846;28;20414;-45
2022/06/16 12:53:35;;;;;;;4.85;1.13;;;25.40;55.80;;;;;;5006666;28;20048;-44
2022/06/16 12:56:20;;;;;;;4.20;1.10;;;25.50;55.70;;;;;;5006545;28;20034;-46
2022/06/16 12:58:54;;;;;;;3.25;1.23;;;25.60;53.80;;;;;;5005807;28;20125;-45
2022/06/16 13:01:20;;;;;;;3.20;1.00;;;25.50;54.40;;;;;;5006188;28;20045;-45
2022/06/16 13:03:58;;;;;;;3.42;0.85;;;25.50;54.60;;;;;;5005388;28;20607;-45
2022/06/16 13:06:25;;;;;;;4.70;0.90;;;25.50;55.40;;;;;;5006421;28;20122;-44
2022/06/16 13:08:56;;;;;;;4.53;1.42;;;25.50;54.50;;;;;;5005898;28;20073;-46
2022/06/16 13:11:30;;;;;;;2.47;0.97;;;25.20;53.80;;;;;;5005747;28;20410;-44
2022/06/16 13:14:01;;;;;;;3.10;1.48;;;25.20;54.10;;;;;;5008570;28;20062;-44
2022/06/16 13:16:30;;;;;;;6.10;1.35;;;24.90;54.50;;;;;;5008062;28;20087;-45
2022/06/16 13:18:59;;;;;;;4.22;1.25;;;24.90;53.70;;;;;;5007011;28;20053;-45
2022/06/16 13:21:40;;;;;;;4.57;0.77;;;25.20;54.70;;;;;;5007038;28;20152;-44
2022/06/16 13:24:38;;;;;;;4.65;1.33;;;26.00;55.50;;;;;;5007316;28;20061;-44
2022/06/16 13:27:49;;;;;;;4.05;1.02;;;25.80;53.30;;;;;;5006164;28;20045;-47
2022/06/16 13:30:32;;;;;;;3.43;1.10;;;26.10;53.20;;;;;;5005836;28;20064;-47
2022/06/16 13:33:29;;;;;;;3.00;0.75;;;26.50;53.60;;;;;;5007085;28;20046;-45
2022/06/16 13:36:21;;;;;;;3.75;1.13;;;26.80;54.30;;;;;;5006908;28;20128;-44
2022/06/16 13:38:49;;;;;;;2.97;0.90;;;26.90;52.00;;;;;;5007569;28;20037;-45